M I D A S
Marine Information and Data Acquisition System
Tripno 1847 of the Zeeleeuw from 2010-03-23 08:42:18 to 2010-03-23 15:07:02
Back to CruiseResearch ActivitiesStationsMapUnderway DataData graphs

EquipmentUnitsComment
TimeDGPSUTC
LatitudeDGPSDM.mWGS84
LongitudeDGPSDM.mWGS84
TemperatureSBE03/SBE38deg celciusITS90
ConductivitySBE21S/mITS90
SalinitySBE21 Practical Salinity Units
ChlorophylAChelsea fluorimeterg/lCalibrated in Aceton
Missing or incorrect values are displayed as -999
Sea surface data collected by the RV Zeeleeuw from 2010-03-23 08:38:44 to 2010-03-23 15:08:08
Time Latitude Longitude Temperature Conductivity Salinity ChlorophylA
2010-03-23 08:39:53 51°13.674 2°55.905 14.7969 0.061555 0.372798 -0.025495
2010-03-23 08:40:52 51°13.69 2°55.814 14.8211 0.061555 0.372813 -0.025495
2010-03-23 08:41:51 51°13.703 2°55.737 14.8178 0.061555 0.372836 -0.025495
2010-03-23 08:42:50 51°13.709 2°55.723 14.7994 0.061555 0.372858 -0.060319
2010-03-23 08:43:53 51°13.728 2°55.725 14.8132 0.061555 0.372866 -0.025495
2010-03-23 08:44:50 51°13.775 2°55.687 14.6761 0.061555 0.372851 -0.025495
2010-03-23 08:45:49 51°13.877 2°55.603 14.6293 0.061555 0.372896 -0.025495
2010-03-23 08:46:49 51°14.006 2°55.506 14.654 0.061555 0.372927 -0.025495
2010-03-23 08:47:49 51°14.147 2°55.403 14.6496 0.061555 0.372949 -0.060319
2010-03-23 08:48:49 51°14.29 2°55.266 14.662 0.061555 0.372972 -0.060319
2010-03-23 08:49:49 51°14.437 2°55.11 14.5876 0.061555 0.372995 -0.060319
2010-03-23 08:50:49 51°14.589 2°54.939 14.4737 0.061555 0.373048 -0.060319
2010-03-23 08:51:49 51°14.73 2°54.71 14.5826 0.061555 0.373108 -0.060319
2010-03-23 08:52:49 51°14.731 2°54.383 14.5772 0.061555 0.373108 -0.060319
2010-03-23 08:53:49 51°14.58 2°54.157 14.0848 0.061555 0.37307 -0.060319
2010-03-23 08:54:49 51°14.408 2°53.904 14.2484 0.061555 0.373139 -0.060319
2010-03-23 08:55:49 51°14.25 2°53.616 14.2989 0.061555 0.373192 -0.060319
2010-03-23 08:56:49 51°14.107 2°53.306 14.3215 0.061555 0.37326 -0.060319
2010-03-23 08:57:49 51°13.949 2°53.014 14.2791 0.061555 0.373283 -0.060319
2010-03-23 08:58:49 51°13.794 2°52.721 14.2215 0.061555 0.373321 -0.060319
2010-03-23 08:59:49 51°13.676 2°52.386 14.2788 0.061555 0.373358 -0.060319
2010-03-23 09:00:49 51°13.559 2°52.049 14.2488 0.061453 0.372758 -0.025495
2010-03-23 09:01:49 51°13.437 2°51.718 14.2766 0.061453 0.372804 -0.060319
2010-03-23 09:02:49 51°13.314 2°51.387 14.2742 0.061453 0.372827 -0.060319
2010-03-23 09:03:49 51°13.199 2°51.08 14.3032 0.061453 0.372872 -0.060319
2010-03-23 09:04:49 51°13.101 2°50.817 14.2857 0.061453 0.372917 -0.060319
2010-03-23 09:05:49 51°13.003 2°50.556 14.2945 0.061453 0.372963 -0.060319
2010-03-23 09:06:49 51°12.903 2°50.289 14.3292 0.061453 0.372993 -0.060319
2010-03-23 09:07:49 51°12.803 2°50.017 14.3127 0.061453 0.373039 -0.060319
2010-03-23 09:08:49 51°12.7 2°49.744 14.3224 0.061453 0.373077 -0.060319
2010-03-23 09:09:49 51°12.597 2°49.472 14.3132 0.06135 0.372469 -0.060319
2010-03-23 09:10:49 51°12.498 2°49.195 14.3074 0.06135 0.372506 -0.060319
2010-03-23 09:11:49 51°12.407 2°48.911 14.325 0.06135 0.37256 -0.060319
2010-03-23 09:12:49 51°12.33 2°48.615 14.3422 0.06135 0.372597 -0.060319
2010-03-23 09:13:49 51°12.255 2°48.318 14.3666 0.06135 0.372643 -0.060319
2010-03-23 09:14:49 51°12.18 2°48.021 14.3539 0.06135 0.372688 -0.060319
2010-03-23 09:15:49 51°12.105 2°47.723 14.3789 0.06135 0.372719 -0.095143
2010-03-23 09:16:49 51°12.028 2°47.421 14.3814 0.06135 0.372764 -0.060319
2010-03-23 09:17:49 51°11.951 2°47.115 14.3759 0.06135 0.37281 -0.060319
2010-03-23 09:18:49 51°11.874 2°46.808 14.3887 0.061247 0.372209 -0.095143
2010-03-23 09:19:49 51°11.795 2°46.501 14.3979 0.061247 0.372247 -0.095143
2010-03-23 09:20:49 51°11.717 2°46.194 14.3774 0.061247 0.3723 -0.095143
2010-03-23 09:21:49 51°11.64 2°45.888 14.4267 0.061247 0.372345 -0.095143
2010-03-23 09:22:48 51°11.565 2°45.586 14.3785 0.061247 0.372391 -0.095143
2010-03-23 09:23:48 51°11.486 2°45.279 14.4267 0.061247 0.372436 -0.095143
2010-03-23 09:24:49 51°11.407 2°44.966 14.4162 0.061247 0.372482 -0.095143
2010-03-23 09:25:48 51°11.332 2°44.663 14.4688 0.061247 0.372527 -0.095143
2010-03-23 09:26:49 51°11.254 2°44.351 14.4518 0.061144 0.371926 -0.095143
2010-03-23 09:27:48 51°11.179 2°44.049 14.4377 0.061144 0.371971 -0.095143
2010-03-23 09:28:48 51°11.103 2°43.74 14.4278 0.061144 0.372024 -0.095143
2010-03-23 09:29:49 51°11.026 2°43.425 14.4449 0.061144 0.372062 -0.095143
2010-03-23 09:30:48 51°10.952 2°43.119 14.4484 0.061144 0.372108 -0.095143
2010-03-23 09:31:48 51°10.875 2°42.805 14.4577 0.061144 0.372153 -0.095143
2010-03-23 09:32:48 51°10.797 2°42.479 14.4917 0.061144 0.372199 -0.095143
2010-03-23 09:33:48 51°10.719 2°42.153 14.478 0.061144 0.372252 -0.095143
2010-03-23 09:34:49 51°10.64 2°41.818 14.4738 0.061144 0.372298 -0.129967
2010-03-23 09:35:49 51°10.554 2°41.486 14.4718 0.061041 0.371703 -0.095143
2010-03-23 09:36:48 51°10.468 2°41.158 14.4919 0.061041 0.371748 -0.129967
2010-03-23 09:37:48 51°10.381 2°40.826 14.5085 0.061041 0.371794 -0.129967
2010-03-23 09:38:48 51°10.295 2°40.494 14.5043 0.061041 0.371847 -0.095143
2010-03-23 09:39:49 51°10.21 2°40.156 14.5483 0.061041 0.371893 -0.129967
2010-03-23 09:40:48 51°10.127 2°39.828 14.5265 0.061041 0.371946 -0.129967
2010-03-23 09:41:49 51°10.041 2°39.488 14.522 0.061041 0.371992 -0.129967
2010-03-23 09:42:48 51°9.959 2°39.157 14.5435 0.061041 0.372053 -0.129967
2010-03-23 09:43:48 51°9.874 2°38.82 14.5314 0.061041 0.372106 -0.129967
2010-03-23 09:44:49 51°9.789 2°38.475 14.5101 0.060938 0.371503 -0.129967
2010-03-23 09:45:48 51°9.708 2°38.141 14.5931 0.060938 0.371548 -0.129967
2010-03-23 09:46:48 51°9.624 2°37.8 14.5608 0.060938 0.371601 -0.129967
2010-03-23 09:47:48 51°9.541 2°37.458 14.6164 0.060938 0.371655 -0.129967
2010-03-23 09:48:49 51°9.454 2°37.11 14.6231 0.060938 0.3717 -0.129967
2010-03-23 09:49:48 51°9.371 2°36.772 14.5931 0.060938 0.371754 -0.129967
2010-03-23 09:50:49 51°9.283 2°36.425 14.5594 0.060938 0.371807 -0.129967
2010-03-23 09:51:49 51°9.197 2°36.082 14.6305 0.060938 0.371853 -0.129967
2010-03-23 09:52:48 51°9.112 2°35.744 14.6367 0.060938 0.371898 -0.129967
2010-03-23 09:53:49 51°9.024 2°35.393 14.6317 0.060938 0.371952 -0.129967
2010-03-23 09:54:49 51°8.936 2°35.047 14.7075 0.060938 0.372005 -0.129967
2010-03-23 09:55:49 51°8.822 2°34.724 14.6624 0.060938 0.372051 -0.129967
2010-03-23 09:56:48 51°8.682 2°34.436 14.6785 0.060835 0.371447 -0.129967
2010-03-23 09:57:48 51°8.528 2°34.158 14.6917 0.060835 0.371507 -0.129967
2010-03-23 09:58:48 51°8.377 2°33.911 14.7436 0.060835 0.371561 -0.129967
2010-03-23 09:59:49 51°8.259 2°33.711 14.7502 0.060835 0.371607 -0.129967
2010-03-23 10:00:48 51°8.149 2°33.528 14.7603 0.060835 0.371652 -0.164791
2010-03-23 10:01:48 51°8.045 2°33.352 14.8141 0.060835 0.371713 -0.164791
2010-03-23 10:02:49 51°7.973 2°33.245 14.7598 0.060835 0.371751 -0.129967
2010-03-23 10:03:48 51°7.955 2°33.198 14.8403 0.060835 0.371805 -0.129967
2010-03-23 10:04:49 51°7.943 2°33.162 14.8264 0.060835 0.371851 -0.164791
2010-03-23 10:05:48 51°7.932 2°33.135 14.8416 0.060835 0.371889 -0.129967
2010-03-23 10:06:49 51°7.922 2°33.108 14.8597 0.060835 0.371935 -0.164791
2010-03-23 10:07:48 51°7.912 2°33.082 14.8794 0.060835 0.371958 -0.164791
2010-03-23 10:08:49 51°7.902 2°33.056 14.8784 0.060835 0.372003 -0.164791
2010-03-23 10:09:48 51°7.892 2°33.03 14.8758 0.060835 0.372034 -0.164791
2010-03-23 10:10:49 51°7.882 2°33.003 14.9005 0.060835 0.372072 -0.164791
2010-03-23 10:11:48 51°7.873 2°32.977 14.8961 0.060835 0.37211 -0.164791
2010-03-23 10:12:49 51°7.863 2°32.95 14.9121 0.060835 0.372149 -0.164791
2010-03-23 10:13:48 51°7.853 2°32.924 14.9388 0.060835 0.372187 -0.164791
2010-03-23 10:14:48 51°7.844 2°32.898 14.9445 0.060835 0.372225 -0.164791
2010-03-23 10:15:49 51°7.834 2°32.87 14.9517 0.060835 0.372256 -0.164791
2010-03-23 10:16:48 51°7.824 2°32.844 14.9463 0.060835 0.372286 -0.164791
2010-03-23 10:17:49 51°7.814 2°32.816 14.9401 0.060835 0.372325 -0.164791
2010-03-23 10:18:48 51°7.803 2°32.791 14.9838 0.060732 0.371704 -0.164791
2010-03-23 10:19:49 51°7.792 2°32.765 14.9754 0.060732 0.371734 -0.164791
2010-03-23 10:20:49 51°7.781 2°32.739 14.9985 0.060732 0.371765 -0.164791
2010-03-23 10:21:48 51°7.77 2°32.714 15.0348 0.060732 0.371803 -0.164791
2010-03-23 10:22:49 51°7.758 2°32.689 15.0425 0.060732 0.371834 -0.164791
2010-03-23 10:23:49 51°7.746 2°32.664 15.0324 0.060732 0.371864 -0.164791
2010-03-23 10:24:49 51°7.735 2°32.64 15.0546 0.060732 0.371895 -0.164791
2010-03-23 10:25:48 51°7.724 2°32.616 15.0591 0.060732 0.371933 -0.199615
2010-03-23 10:26:48 51°7.713 2°32.592 15.1036 0.060732 0.371971 -0.164791
2010-03-23 10:27:48 51°7.701 2°32.569 15.0972 0.060732 0.372017 -0.164791
2010-03-23 10:28:48 51°7.69 2°32.546 15.1135 0.060732 0.372056 -0.164791
2010-03-23 10:29:49 51°7.678 2°32.523 15.1142 0.060732 0.372094 -0.199615
2010-03-23 10:30:48 51°7.666 2°32.501 15.1161 0.060732 0.37214 -0.199615
2010-03-23 10:31:48 51°7.654 2°32.478 14.7355 0.060732 0.372186 -0.199615
2010-03-23 10:32:49 51°7.642 2°32.456 14.7981 0.060732 0.372217 -0.199615
2010-03-23 10:33:49 51°7.629 2°32.434 14.8087 0.060732 0.372247 -0.199615
2010-03-23 10:34:48 51°7.616 2°32.412 14.815 0.060732 0.372286 -0.164791
2010-03-23 10:35:48 51°7.602 2°32.391 14.8275 0.060732 0.372324 -0.199615
2010-03-23 10:36:48 51°7.597 2°32.365 14.8495 0.060732 0.372347 -0.164791
2010-03-23 10:37:48 51°7.623 2°32.36 14.8647 0.060732 0.372409 -0.164791
2010-03-23 10:38:49 51°7.687 2°32.449 14.8693 0.060732 0.372447 -0.164791
2010-03-23 10:39:48 51°7.766 2°32.606 14.8855 0.060732 0.372485 -0.164791
2010-03-23 10:40:49 51°7.848 2°32.79 14.852 0.060732 0.372524 -0.164791
2010-03-23 10:41:49 51°7.914 2°32.983 14.9284 0.060732 0.372585 -0.199615
2010-03-23 10:42:49 51°7.953 2°33.104 14.9696 0.060732 0.372631 -0.199615
2010-03-23 10:43:48 51°7.958 2°33.179 15.0155 0.060732 0.37267 -0.164791
2010-03-23 10:44:48 51°7.967 2°33.219 14.9274 0.060732 0.372716 -0.199615
2010-03-23 10:45:48 51°7.969 2°33.234 14.9939 0.060732 0.372747 -0.199615
2010-03-23 10:46:48 51°7.963 2°33.239 15.0105 0.060732 0.372793 -0.199615
2010-03-23 10:47:49 51°7.953 2°33.238 15.036 0.060732 0.372839 -0.199615
2010-03-23 10:48:49 51°7.943 2°33.234 15.0474 0.060732 0.372885 -0.199615
2010-03-23 10:49:48 51°7.932 2°33.225 15.0686 0.060732 0.372924 -0.199615
2010-03-23 10:50:48 51°7.92 2°33.214 15.0941 0.060732 0.37297 -0.199615
2010-03-23 10:51:49 51°7.907 2°33.203 15.1107 0.060732 0.373008 -0.199615
2010-03-23 10:52:48 51°7.916 2°33.234 15.1106 0.060732 0.373093 -0.199615
2010-03-23 10:53:49 51°8.011 2°33.315 15.1282 0.060732 0.373078 -0.199615
2010-03-23 10:54:48 51°8.151 2°33.36 15.1664 0.060732 0.373132 -0.199615
2010-03-23 10:55:49 51°8.318 2°33.289 15.2179 0.060732 0.373155 -0.199615
2010-03-23 10:56:48 51°8.479 2°33.179 15.2623 0.060732 0.373209 -0.199615
2010-03-23 10:57:48 51°8.64 2°33.052 15.2705 0.060629 0.372609 -0.199615
2010-03-23 10:58:48 51°8.792 2°32.948 15.2982 0.060629 0.372663 -0.199615
2010-03-23 10:59:48 51°8.916 2°32.942 15.3193 0.060629 0.372732 -0.199615
2010-03-23 11:00:48 51°8.944 2°33.027 15.346 0.060629 0.372794 -0.199615
2010-03-23 11:01:48 51°8.951 2°33.106 15.3602 0.060629 0.372848 -0.199615
2010-03-23 11:02:48 51°8.94 2°33.118 15.3739 0.060629 0.372902 -0.199615
2010-03-23 11:03:48 51°8.927 2°33.092 15.3912 0.060629 0.372987 -0.199615
2010-03-23 11:04:48 51°8.912 2°33.062 15.4074 0.060629 0.373048 -0.234439
2010-03-23 11:05:48 51°8.896 2°33.03 15.4178 0.060629 0.373118 -0.234439
2010-03-23 11:06:48 51°8.878 2°32.996 15.4513 0.060629 0.373172 -0.234439
2010-03-23 11:07:48 51°8.86 2°32.96 15.4558 0.060629 0.373226 -0.234439
2010-03-23 11:08:48 51°8.841 2°32.924 15.4751 0.060629 0.37328 -0.234439
2010-03-23 11:09:49 51°8.823 2°32.887 15.4746 0.060629 0.373342 -0.234439
2010-03-23 11:10:48 51°8.805 2°32.852 15.4886 0.060629 0.373404 -0.234439
2010-03-23 11:11:49 51°8.786 2°32.816 15.5207 0.060629 0.373466 -0.234439
2010-03-23 11:12:48 51°8.769 2°32.782 15.5279 0.060629 0.373536 -0.234439
2010-03-23 11:13:49 51°8.751 2°32.747 15.5411 0.060526 0.372949 -0.234439
2010-03-23 11:14:48 51°8.735 2°32.714 15.545 0.060526 0.373011 -0.234439
2010-03-23 11:15:49 51°8.716 2°32.68 15.5826 0.060526 0.373066 -0.234439
2010-03-23 11:16:49 51°8.699 2°32.646 15.599 0.060526 0.373128 -0.234439
2010-03-23 11:17:48 51°8.682 2°32.613 15.5981 0.060526 0.37319 -0.234439
2010-03-23 11:18:49 51°8.665 2°32.58 15.6198 0.060526 0.373236 -0.234439
2010-03-23 11:19:48 51°8.648 2°32.547 15.6143 0.060526 0.373283 -0.234439
2010-03-23 11:20:49 51°8.63 2°32.514 15.6384 0.060526 0.373329 -0.234439
2010-03-23 11:21:48 51°8.61 2°32.484 15.6689 0.060526 0.373383 -0.234439
2010-03-23 11:22:49 51°8.584 2°32.505 15.7041 0.060526 0.373445 -0.234439
2010-03-23 11:23:48 51°8.613 2°32.613 15.609 0.060526 0.373438 -0.234439
2010-03-23 11:24:48 51°8.618 2°32.807 15.696 0.060424 0.372858 -0.234439
2010-03-23 11:25:48 51°8.646 2°33.012 15.686 0.060424 0.372928 -0.234439
2010-03-23 11:26:48 51°8.69 2°33.217 15.709 0.060424 0.372959 -0.234439
2010-03-23 11:27:48 51°8.73 2°33.424 15.7284 0.060424 0.373013 -0.234439
2010-03-23 11:28:48 51°8.774 2°33.652 15.7308 0.060424 0.37306 -0.269263
2010-03-23 11:29:48 51°8.817 2°33.889 15.7426 0.060424 0.373099 -0.234439
2010-03-23 11:30:48 51°8.866 2°34.124 15.7325 0.060424 0.373153 -0.269263
2010-03-23 11:31:48 51°8.913 2°34.246 15.8064 0.060424 0.373239 -0.269263
2010-03-23 11:32:48 51°8.935 2°34.244 15.8213 0.060424 0.373293 -0.269263
2010-03-23 11:33:48 51°8.94 2°34.214 15.8208 0.060424 0.373347 -0.269263
2010-03-23 11:34:48 51°8.941 2°34.177 15.8289 0.060321 0.372744 -0.269263
2010-03-23 11:35:48 51°8.94 2°34.137 15.8517 0.060321 0.372806 -0.269263
2010-03-23 11:36:48 51°8.939 2°34.096 15.8595 0.060321 0.372852 -0.269263
2010-03-23 11:37:48 51°8.936 2°34.054 15.8373 0.060321 0.372922 -0.269263
2010-03-23 11:38:48 51°8.933 2°34.013 15.8912 0.060321 0.372977 -0.269263
2010-03-23 11:39:48 51°8.931 2°33.974 15.8882 0.060321 0.373031 -0.269263
2010-03-23 11:40:48 51°8.927 2°33.935 15.9111 0.060321 0.373086 -0.269263
2010-03-23 11:41:48 51°8.923 2°33.896 15.9214 0.060321 0.373132 -0.269263
2010-03-23 11:42:48 51°8.918 2°33.858 15.936 0.060321 0.373179 -0.304087
2010-03-23 11:43:48 51°8.914 2°33.819 15.9101 0.060218 0.372575 -0.269263
2010-03-23 11:44:48 51°8.908 2°33.781 15.957 0.060218 0.372621 -0.304087
2010-03-23 11:45:49 51°8.902 2°33.743 15.9684 0.060218 0.372676 -0.269263
2010-03-23 11:46:48 51°8.895 2°33.704 15.9768 0.060218 0.372722 -0.269263
2010-03-23 11:47:48 51°8.891 2°33.663 15.9927 0.060218 0.372769 -0.269263
2010-03-23 11:48:48 51°8.884 2°33.624 16.0038 0.060218 0.372824 -0.269263
2010-03-23 11:49:48 51°8.876 2°33.584 15.9922 0.060218 0.372863 -0.304087
2010-03-23 11:50:48 51°8.866 2°33.545 16.0211 0.060218 0.372909 -0.269263
2010-03-23 11:51:48 51°8.858 2°33.505 16.032 0.060218 0.372948 -0.304087
2010-03-23 11:52:48 51°8.849 2°33.466 16.0357 0.060218 0.372995 -0.269263
2010-03-23 11:53:48 51°8.839 2°33.427 16.0695 0.060115 0.372382 -0.304087
2010-03-23 11:54:48 51°8.83 2°33.389 16.0707 0.060115 0.372429 -0.304087
2010-03-23 11:55:48 51°8.82 2°33.35 16.0721 0.060115 0.372476 -0.269263
2010-03-23 11:56:48 51°8.811 2°33.313 16.0834 0.060115 0.37253 -0.304087
2010-03-23 11:57:48 51°8.802 2°33.276 16.0915 0.060115 0.372577 -0.304087
2010-03-23 11:58:48 51°8.793 2°33.239 16.1072 0.060115 0.372631 -0.304087
2010-03-23 11:59:48 51°8.785 2°33.203 16.1236 0.060115 0.372686 -0.304087
2010-03-23 12:00:48 51°8.776 2°33.167 16.1262 0.060115 0.372725 -0.304087
2010-03-23 12:01:48 51°8.767 2°33.131 16.1356 0.060115 0.372772 -0.304087
2010-03-23 12:02:48 51°8.759 2°33.096 16.1473 0.060115 0.372811 -0.304087
2010-03-23 12:03:48 51°8.751 2°33.06 16.1476 0.060012 0.372189 -0.304087
2010-03-23 12:04:48 51°8.742 2°33.025 16.1659 0.060012 0.372236 -0.304087
2010-03-23 12:05:48 51°8.733 2°32.99 16.1747 0.060012 0.372275 -0.304087
2010-03-23 12:06:48 51°8.723 2°32.955 16.1781 0.060012 0.372306 -0.304087
2010-03-23 12:07:48 51°8.714 2°32.919 16.1938 0.060012 0.372345 -0.304087
2010-03-23 12:08:48 51°8.703 2°32.884 16.1906 0.060012 0.372376 -0.338911
2010-03-23 12:09:48 51°8.692 2°32.848 16.2049 0.060012 0.372407 -0.304087
2010-03-23 12:10:48 51°8.682 2°32.813 16.202 0.060012 0.372439 -0.338911
2010-03-23 12:11:48 51°8.672 2°32.778 16.22 0.060012 0.37247 -0.304087
2010-03-23 12:12:48 51°8.661 2°32.743 16.2477 0.060012 0.372501 -0.338911
2010-03-23 12:13:48 51°8.65 2°32.708 16.2417 0.060012 0.37254 -0.338911
2010-03-23 12:14:49 51°8.638 2°32.673 16.2484 0.060012 0.372579 -0.338911
2010-03-23 12:15:48 51°8.627 2°32.639 16.2397 0.060012 0.37261 -0.338911
2010-03-23 12:16:48 51°8.616 2°32.604 16.2564 0.059909 0.371988 -0.338911
2010-03-23 12:17:48 51°8.604 2°32.568 16.2668 0.059909 0.372035 -0.338911
2010-03-23 12:18:48 51°8.592 2°32.534 16.275 0.059909 0.372074 -0.338911
2010-03-23 12:19:48 51°8.581 2°32.5 16.3014 0.059909 0.372113 -0.338911
2010-03-23 12:20:48 51°8.568 2°32.465 16.3022 0.059909 0.372152 -0.338911
2010-03-23 12:21:48 51°8.557 2°32.43 16.3202 0.059909 0.372183 -0.338911
2010-03-23 12:22:48 51°8.557 2°32.384 16.2713 0.059909 0.372214 -0.338911
2010-03-23 12:23:48 51°8.603 2°32.366 16.2475 0.059909 0.372269 -0.338911
2010-03-23 12:24:48 51°8.687 2°32.493 16.2588 0.059909 0.372308 -0.373735
2010-03-23 12:25:48 51°8.696 2°32.713 16.3125 0.059909 0.372339 -0.373735
2010-03-23 12:26:48 51°8.691 2°32.946 16.3394 0.059909 0.372402 -0.373735
2010-03-23 12:27:48 51°8.687 2°33.181 16.3453 0.059909 0.372425 -0.373735
2010-03-23 12:28:48 51°8.683 2°33.417 16.3642 0.059909 0.372457 -0.373735
2010-03-23 12:29:48 51°8.677 2°33.655 16.363 0.059909 0.372496 -0.373735
2010-03-23 12:30:48 51°8.671 2°33.893 16.3605 0.059909 0.372535 -0.373735
2010-03-23 12:31:48 51°8.665 2°34.13 16.4073 0.059806 0.371912 -0.373735
2010-03-23 12:32:48 51°8.684 2°34.359 16.3824 0.059806 0.371959 -0.373735
2010-03-23 12:33:48 51°8.713 2°34.584 16.4079 0.059806 0.372005 -0.373735
2010-03-23 12:34:48 51°8.742 2°34.809 16.4138 0.059806 0.372052 -0.373735
2010-03-23 12:35:48 51°8.75 2°35.037 16.4037 0.059806 0.372091 -0.373735
2010-03-23 12:36:49 51°8.717 2°35.255 16.4799 0.059806 0.372177 -0.373735
2010-03-23 12:37:48 51°8.767 2°35.308 16.4513 0.059806 0.372224 -0.408559
2010-03-23 12:38:48 51°8.817 2°35.267 16.4573 0.059806 0.372193 -0.408559
2010-03-23 12:39:49 51°8.889 2°35.216 16.4608 0.059806 0.372224 -0.373735
2010-03-23 12:40:48 51°8.97 2°35.198 16.4568 0.059806 0.372271 -0.408559
2010-03-23 12:41:48 51°9.033 2°35.227 16.4798 0.059806 0.372318 -0.373735
2010-03-23 12:42:48 51°9.069 2°35.285 16.4906 0.059806 0.37235 -0.408559
2010-03-23 12:43:48 51°9.095 2°35.365 16.4734 0.059806 0.372357 -0.408559
2010-03-23 12:44:48 51°9.111 2°35.462 16.5028 0.059806 0.372381 -0.408559
2010-03-23 12:45:48 51°9.139 2°35.553 16.4984 0.059703 0.371749 -0.408559
2010-03-23 12:46:48 51°9.163 2°35.647 16.4952 0.059703 0.371781 -0.408559
2010-03-23 12:47:48 51°9.163 2°35.752 16.5178 0.059703 0.37182 -0.408559
2010-03-23 12:48:48 51°9.157 2°35.858 16.5182 0.059703 0.371859 -0.408559
2010-03-23 12:49:48 51°9.156 2°35.964 16.4987 0.059703 0.371906 -0.408559
2010-03-23 12:50:48 51°9.159 2°36.067 16.5002 0.059703 0.371945 -0.408559
2010-03-23 12:51:48 51°9.147 2°36.163 16.5217 0.059703 0.371992 -0.408559
2010-03-23 12:52:48 51°9.122 2°36.255 16.5335 0.059703 0.372039 -0.408559
2010-03-23 12:53:48 51°9.093 2°36.348 16.5225 0.059703 0.372078 -0.408559
2010-03-23 12:54:48 51°9.066 2°36.441 16.5436 0.059703 0.372109 -0.443383
2010-03-23 12:55:48 51°9.047 2°36.537 16.5327 0.059703 0.372141 -0.408559
2010-03-23 12:56:48 51°9.032 2°36.635 16.557 0.059703 0.372172 -0.443383
2010-03-23 12:57:48 51°9.027 2°36.734 16.5627 0.059703 0.372219 -0.408559
2010-03-23 12:58:48 51°9.043 2°36.828 16.5552 0.059703 0.372258 -0.443383
2010-03-23 12:59:48 51°9.076 2°36.914 16.5768 0.059703 0.37229 -0.443383
2010-03-23 13:00:48 51°9.121 2°36.987 16.5568 0.059703 0.372313 -0.443383
2010-03-23 13:01:48 51°9.169 2°37.06 16.5587 0.059703 0.372345 -0.443383
2010-03-23 13:02:48 51°9.215 2°37.135 16.5821 0.059703 0.372376 -0.443383
2010-03-23 13:03:48 51°9.257 2°37.211 16.5698 0.059703 0.372407 -0.443383
2010-03-23 13:04:48 51°9.301 2°37.29 16.58 0.0596 0.371775 -0.443383
2010-03-23 13:05:48 51°9.345 2°37.368 16.5908 0.0596 0.371798 -0.443383
2010-03-23 13:06:48 51°9.388 2°37.447 16.6041 0.0596 0.371829 -0.443383
2010-03-23 13:07:48 51°9.43 2°37.527 16.6042 0.0596 0.371853 -0.443383
2010-03-23 13:08:49 51°9.473 2°37.606 16.6198 0.0596 0.371884 -0.478207
2010-03-23 13:09:48 51°9.514 2°37.683 16.5979 0.0596 0.371908 -0.478207
2010-03-23 13:10:48 51°9.555 2°37.762 16.5994 0.0596 0.371931 -0.478207
2010-03-23 13:11:48 51°9.587 2°37.849 16.6128 0.0596 0.371955 -0.478207
2010-03-23 13:12:48 51°9.614 2°37.939 16.6139 0.0596 0.371978 -0.478207
2010-03-23 13:13:48 51°9.641 2°38.028 16.6143 0.0596 0.371994 -0.478207
2010-03-23 13:14:48 51°9.669 2°38.118 16.6197 0.0596 0.372018 -0.478207
2010-03-23 13:15:48 51°9.699 2°38.207 16.6307 0.0596 0.372041 -0.478207
2010-03-23 13:16:48 51°9.728 2°38.295 16.6289 0.0596 0.372065 -0.478207
2010-03-23 13:17:48 51°9.757 2°38.383 16.6374 0.0596 0.372088 -0.478207
2010-03-23 13:18:48 51°9.785 2°38.471 16.6425 0.0596 0.372104 -0.513031
2010-03-23 13:19:48 51°9.813 2°38.56 16.6354 0.0596 0.372136 -0.513031
2010-03-23 13:20:48 51°9.84 2°38.649 16.6472 0.0596 0.372167 -0.513031
2010-03-23 13:21:48 51°9.869 2°38.739 16.645 0.0596 0.372191 -0.513031
2010-03-23 13:22:48 51°9.897 2°38.829 16.6694 0.0596 0.372214 -0.513031
2010-03-23 13:23:48 51°9.931 2°38.912 16.6259 0.0596 0.372246 -0.513031
2010-03-23 13:24:48 51°9.938 2°39.009 16.6506 0.0596 0.372285 -0.513031
2010-03-23 13:25:48 51°9.91 2°39.102 16.6673 0.0596 0.372308 -0.513031
2010-03-23 13:26:48 51°9.86 2°39.176 16.6757 0.0596 0.372324 -0.513031
2010-03-23 13:27:48 51°9.803 2°39.215 16.6695 0.0596 0.372348 -0.513031
2010-03-23 13:28:48 51°9.743 2°39.217 16.6914 0.059497 0.371714 -0.513031
2010-03-23 13:29:48 51°9.691 2°39.182 16.6959 0.059497 0.371745 -0.547855
2010-03-23 13:30:48 51°9.656 2°39.133 16.701 0.059497 0.371785 -0.513031
2010-03-23 13:31:48 51°9.636 2°39.082 16.7219 0.059497 0.371816 -0.513031
2010-03-23 13:32:48 51°9.621 2°39.035 16.7035 0.059497 0.371847 -0.513031
2010-03-23 13:33:48 51°9.61 2°38.994 16.7095 0.059497 0.371879 -0.513031
2010-03-23 13:34:48 51°9.602 2°38.957 16.7217 0.059497 0.371902 -0.547855
2010-03-23 13:35:48 51°9.573 2°38.852 16.6744 0.059497 0.371918 -0.547855
2010-03-23 13:36:48 51°9.553 2°38.666 16.7021 0.059497 0.371958 -0.547855
2010-03-23 13:37:48 51°9.573 2°38.549 16.711 0.059497 0.371981 -0.547855
2010-03-23 13:38:48 51°9.599 2°38.469 16.7073 0.059497 0.372013 -0.547855
2010-03-23 13:39:48 51°9.623 2°38.394 16.7083 0.059497 0.372036 -0.547855
2010-03-23 13:40:48 51°9.654 2°38.269 16.6946 0.059497 0.37206 -0.547855
2010-03-23 13:41:48 51°9.676 2°38.131 16.7102 0.059497 0.372091 -0.547855
2010-03-23 13:42:48 51°9.676 2°38.027 16.7036 0.059497 0.372107 -0.547855
2010-03-23 13:43:48 51°9.669 2°37.947 16.6994 0.059497 0.372131 -0.547855
2010-03-23 13:44:48 51°9.661 2°37.882 16.6955 0.059497 0.372154 -0.547855
2010-03-23 13:45:48 51°9.654 2°37.828 16.7018 0.059497 0.37217 -0.547855
2010-03-23 13:46:48 51°9.647 2°37.782 16.6987 0.059497 0.372194 -0.547855
2010-03-23 13:47:48 51°9.642 2°37.743 16.7033 0.059497 0.372217 -0.547855
2010-03-23 13:48:48 51°9.639 2°37.709 16.7005 0.059497 0.372241 -0.58268
2010-03-23 13:49:48 51°9.635 2°37.677 16.7035 0.059497 0.372257 -0.547855
2010-03-23 13:50:48 51°9.631 2°37.647 16.6984 0.059497 0.372272 -0.58268
2010-03-23 13:51:48 51°9.627 2°37.619 16.6873 0.059497 0.372288 -0.58268
2010-03-23 13:52:48 51°9.623 2°37.591 16.6892 0.059497 0.372296 -0.58268
2010-03-23 13:53:48 51°9.62 2°37.566 16.6855 0.059497 0.372304 -0.547855
2010-03-23 13:54:48 51°9.615 2°37.521 16.6956 0.059497 0.372312 -0.58268
2010-03-23 13:55:48 51°9.655 2°37.431 16.801 0.059497 0.372359 -0.58268
2010-03-23 13:56:48 51°9.736 2°37.543 16.7502 0.059497 0.372359 -0.58268
2010-03-23 13:57:48 51°9.804 2°37.803 16.7488 0.059497 0.372367 -0.58268
2010-03-23 13:58:48 51°9.875 2°38.125 16.756 0.059497 0.372375 -0.58268
2010-03-23 13:59:48 51°9.935 2°38.456 16.7624 0.059497 0.372406 -0.58268
2010-03-23 14:00:48 51°9.996 2°38.785 16.7605 0.059497 0.372422 -0.58268
2010-03-23 14:01:48 51°10.07 2°39.107 16.7655 0.059497 0.372438 -0.58268
2010-03-23 14:02:48 51°10.147 2°39.428 16.7681 0.059497 0.372462 -0.58268
2010-03-23 14:03:48 51°10.224 2°39.752 16.7708 0.059497 0.372485 -0.58268
2010-03-23 14:04:48 51°10.302 2°40.074 16.7761 0.059497 0.372501 -0.58268
2010-03-23 14:05:48 51°10.378 2°40.398 16.777 0.059395 0.371858 -0.58268
2010-03-23 14:06:48 51°10.454 2°40.721 16.7812 0.059395 0.371874 -0.58268
2010-03-23 14:07:48 51°10.531 2°41.045 16.7867 0.059395 0.37189 -0.58268
2010-03-23 14:08:48 51°10.609 2°41.368 16.7908 0.059395 0.371921 -0.58268
2010-03-23 14:09:48 51°10.685 2°41.692 16.7908 0.059395 0.371945 -0.617504
2010-03-23 14:10:48 51°10.762 2°42.017 16.7922 0.059395 0.371976 -0.617504
2010-03-23 14:11:48 51°10.842 2°42.338 16.7963 0.059395 0.372008 -0.58268
2010-03-23 14:12:48 51°10.929 2°42.653 16.805 0.059395 0.372039 -0.617504
2010-03-23 14:13:48 51°11.012 2°42.97 16.8011 0.059395 0.372063 -0.58268
2010-03-23 14:14:48 51°11.096 2°43.288 16.8042 0.059395 0.372102 -0.617504
2010-03-23 14:15:48 51°11.18 2°43.605 16.8066 0.059395 0.372134 -0.617504
2010-03-23 14:16:48 51°11.257 2°43.928 16.8132 0.059395 0.372158 -0.617504
2010-03-23 14:17:48 51°11.334 2°44.251 16.8177 0.059395 0.372189 -0.617504
2010-03-23 14:18:48 51°11.42 2°44.567 16.8184 0.059395 0.372221 -0.617504
2010-03-23 14:19:48 51°11.508 2°44.883 16.822 0.059395 0.372237 -0.652328
2010-03-23 14:20:48 51°11.597 2°45.198 16.8215 0.059395 0.372268 -0.617504
2010-03-23 14:21:48 51°11.684 2°45.513 16.8259 0.059395 0.372284 -0.617504
2010-03-23 14:22:48 51°11.771 2°45.831 16.8284 0.059395 0.372316 -0.617504
2010-03-23 14:23:48 51°11.858 2°46.151 16.8334 0.059395 0.372331 -0.617504
2010-03-23 14:24:48 51°11.946 2°46.472 16.8351 0.059395 0.372363 -0.652328
2010-03-23 14:25:48 51°12.035 2°46.792 16.8401 0.059395 0.372379 -0.652328
2010-03-23 14:26:48 51°12.123 2°47.112 16.8476 0.059395 0.37241 -0.652328
2010-03-23 14:27:48 51°12.212 2°47.435 16.8441 0.059395 0.372434 -0.652328
2010-03-23 14:28:48 51°12.3 2°47.756 16.8488 0.059395 0.372458 -0.652328
2010-03-23 14:29:48 51°12.39 2°48.076 16.8596 0.059292 0.371814 -0.652328
2010-03-23 14:30:48 51°12.479 2°48.396 16.864 0.059292 0.371845 -0.652328
2010-03-23 14:31:48 51°12.569 2°48.716 16.8671 0.059292 0.371869 -0.652328
2010-03-23 14:32:48 51°12.661 2°49.037 16.8762 0.059292 0.371885 -0.652328
2010-03-23 14:33:48 51°12.76 2°49.352 16.8784 0.059292 0.371901 -0.652328
2010-03-23 14:34:48 51°12.867 2°49.662 16.8835 0.059292 0.371916 -0.652328
2010-03-23 14:35:48 51°12.972 2°49.975 16.8871 0.059292 0.371924 -0.652328
2010-03-23 14:36:48 51°13.081 2°50.262 16.8992 0.059292 0.371948 -0.687152
2010-03-23 14:37:48 51°13.183 2°50.471 16.9002 0.059292 0.371956 -0.652328
2010-03-23 14:38:48 51°13.281 2°50.67 16.9061 0.059292 0.371964 -0.687152
2010-03-23 14:39:48 51°13.391 2°50.847 16.8887 0.059292 0.371972 -0.687152
2010-03-23 14:40:48 51°13.439 2°50.99 16.9181 0.059292 0.372003 -0.652328
2010-03-23 14:41:48 51°13.435 2°51.032 16.9266 0.059292 0.372011 -0.687152
2010-03-23 14:42:48 51°13.439 2°51.034 16.9281 0.059292 0.372011 -0.687152
2010-03-23 14:43:48 51°13.443 2°51.036 16.9364 0.059292 0.372027 -0.687152
2010-03-23 14:44:48 51°13.453 2°51.142 16.9379 0.059292 0.372051 -0.687152
2010-03-23 14:45:48 51°13.554 2°51.395 16.9374 0.059292 0.372027 -0.687152
2010-03-23 14:46:48 51°13.674 2°51.702 16.9496 0.059292 0.372035 -0.687152
2010-03-23 14:47:48 51°13.791 2°52.019 16.954 0.059292 0.372051 -0.687152
2010-03-23 14:48:48 51°13.907 2°52.338 16.9573 0.059292 0.372059 -0.687152
2010-03-23 14:49:48 51°14.024 2°52.656 16.9684 0.059292 0.372067 -0.687152
2010-03-23 14:50:48 51°14.141 2°52.956 12.4741 0.059292 0.372074 -0.93092
2010-03-23 14:51:48 51°14.255 2°53.25 11.9136 0.059292 0.372074 -1.000568
2010-03-23 14:52:48 51°14.365 2°53.547 12.3482 0.059292 0.372082 -1.070216
2010-03-23 14:53:48 51°14.469 2°53.838 12.6179 0.059292 0.372082 -1.070216
2010-03-23 14:54:48 51°14.534 2°54.131 12.9197 0.059292 0.372082 -1.070216
2010-03-23 14:55:48 51°14.58 2°54.378 12.7288 0.059292 0.372098 -1.10504
2010-03-23 14:56:48 51°14.615 2°54.582 13.1356 0.059292 0.372098 -1.070216
2010-03-23 14:57:48 51°14.628 2°54.781 12.87 0.059292 0.372098 -1.070216
2010-03-23 14:58:48 51°14.562 2°54.973 12.9698 0.059292 0.372114 -1.10504
2010-03-23 14:59:48 51°14.432 2°55.123 13.1073 0.059292 0.372122 -1.10504
2010-03-23 15:00:48 51°14.293 2°55.269 13.5612 0.059292 0.372122 -1.10504
2010-03-23 15:01:48 51°14.147 2°55.394 13.8462 0.059292 0.372114 -1.10504
2010-03-23 15:02:48 51°14.01 2°55.5 14.0875 0.059292 0.372122 -1.10504
2010-03-23 15:03:48 51°13.91 2°55.574 13.7687 0.059292 0.372114 -1.10504
2010-03-23 15:04:48 51°13.816 2°55.645 14.6224 0.059292 0.372114 -1.10504
2010-03-23 15:05:48 51°13.737 2°55.748 14.8926 0.059292 0.372114 -1.10504
2010-03-23 15:06:49 51°13.692 2°55.85 13.8824 0.059292 0.372106 -1.10504
2010-03-23 15:07:48 51°13.668 2°55.94 14.2791 0.059292 0.37209 -1.10504